sensor_id;sensor_type;location;lat;lon;timestamp;pressure;altitude;pressure_sealevel;temperature;humidity
51053;BME280;37093;37.716;-122.060;2023-04-09T00:02:15;100228.34;;;20.67;29.60
51053;BME280;37093;37.716;-122.060;2023-04-09T00:04:43;100226.41;;;20.78;28.84
51053;BME280;37093;37.716;-122.060;2023-04-09T00:07:12;100225.02;;;20.60;30.52
51053;BME280;37093;37.716;-122.060;2023-04-09T00:09:40;100224.08;;;21.81;28.75
51053;BME280;37093;37.716;-122.060;2023-04-09T00:12:09;100219.96;;;21.61;28.83
51053;BME280;37093;37.716;-122.060;2023-04-09T00:14:37;100225.41;;;21.20;29.72
51053;BME280;37093;37.716;-122.060;2023-04-09T00:17:06;100225.49;;;20.88;29.65
51053;BME280;37093;37.716;-122.060;2023-04-09T00:19:35;100226.77;;;20.64;30.70
51053;BME280;37093;37.716;-122.060;2023-04-09T00:22:03;100228.01;;;21.10;31.24
51053;BME280;37093;37.716;-122.060;2023-04-09T00:24:31;100228.92;;;20.38;32.39
51053;BME280;37093;37.716;-122.060;2023-04-09T00:27:00;100227.17;;;21.38;30.56
51053;BME280;37093;37.716;-122.060;2023-04-09T00:29:28;100227.68;;;20.82;31.68
51053;BME280;37093;37.716;-122.060;2023-04-09T00:31:57;100232.78;;;20.65;32.18
51053;BME280;37093;37.716;-122.060;2023-04-09T00:34:25;100237.94;;;20.48;32.15
51053;BME280;37093;37.716;-122.060;2023-04-09T00:36:54;100235.94;;;20.18;33.10
51053;BME280;37093;37.716;-122.060;2023-04-09T00:39:22;100236.22;;;20.37;32.37
51053;BME280;37093;37.716;-122.060;2023-04-09T00:41:55;100238.25;;;20.94;31.69
51053;BME280;37093;37.716;-122.060;2023-04-09T00:44:24;100240.94;;;20.08;32.35
51053;BME280;37093;37.716;-122.060;2023-04-09T00:46:53;100243.04;;;20.04;31.36
51053;BME280;37093;37.716;-122.060;2023-04-09T00:49:22;100244.66;;;19.72;32.08
51053;BME280;37093;37.716;-122.060;2023-04-09T00:51:51;100244.85;;;19.98;31.44
51053;BME280;37093;37.716;-122.060;2023-04-09T00:54:19;100246.21;;;19.88;32.64
51053;BME280;37093;37.716;-122.060;2023-04-09T00:56:48;100246.73;;;19.94;31.55
51053;BME280;37093;37.716;-122.060;2023-04-09T00:59:16;100242.75;;;19.42;32.34
51053;BME280;37093;37.716;-122.060;2023-04-09T01:01:45;100240.75;;;19.39;32.62
51053;BME280;37093;37.716;-122.060;2023-04-09T01:04:13;100246.82;;;19.74;31.61
51053;BME280;37093;37.716;-122.060;2023-04-09T01:06:47;100248.16;;;19.85;31.26
51053;BME280;37093;37.716;-122.060;2023-04-09T01:09:22;100250.80;;;19.92;31.08
51053;BME280;37093;37.716;-122.060;2023-04-09T01:12:01;100251.69;;;19.77;31.73
51053;BME280;37093;37.716;-122.060;2023-04-09T01:14:39;100256.78;;;19.65;31.55
51053;BME280;37093;37.716;-122.060;2023-04-09T01:17:18;100254.76;;;19.66;31.22
51053;BME280;37093;37.716;-122.060;2023-04-09T01:19:56;100254.67;;;19.51;31.06
51053;BME280;37093;37.716;-122.060;2023-04-09T01:22:41;100255.92;;;19.93;30.54
51053;BME280;37093;37.716;-122.060;2023-04-09T01:25:28;100253.84;;;18.74;30.45
51053;BME280;37093;37.716;-122.060;2023-04-09T01:28:16;100254.62;;;19.66;30.26
51053;BME280;37093;37.716;-122.060;2023-04-09T01:30:48;100252.66;;;19.50;29.34
51053;BME280;37093;37.716;-122.060;2023-04-09T01:33:19;100253.16;;;19.88;29.25
51053;BME280;37093;37.716;-122.060;2023-04-09T01:35:49;100247.71;;;19.11;29.72
51053;BME280;37093;37.716;-122.060;2023-04-09T01:38:20;100253.88;;;19.95;29.32
51053;BME280;37093;37.716;-122.060;2023-04-09T01:40:50;100252.02;;;19.19;30.68
51053;BME280;37093;37.716;-122.060;2023-04-09T01:43:18;100254.60;;;19.94;30.28
51053;BME280;37093;37.716;-122.060;2023-04-09T01:45:47;100251.44;;;19.80;29.03
51053;BME280;37093;37.716;-122.060;2023-04-09T01:48:16;100253.32;;;19.81;28.61
51053;BME280;37093;37.716;-122.060;2023-04-09T01:50:45;100253.64;;;19.06;30.24
51053;BME280;37093;37.716;-122.060;2023-04-09T01:53:13;100253.45;;;19.52;31.57
51053;BME280;37093;37.716;-122.060;2023-04-09T01:55:42;100259.96;;;19.03;32.40
51053;BME280;37093;37.716;-122.060;2023-04-09T01:58:10;100260.54;;;19.02;33.65
51053;BME280;37093;37.716;-122.060;2023-04-09T02:00:41;100262.87;;;18.42;34.62
51053;BME280;37093;37.716;-122.060;2023-04-09T02:03:17;100265.98;;;18.43;35.02
51053;BME280;37093;37.716;-122.060;2023-04-09T02:05:54;100265.46;;;18.37;35.33
51053;BME280;37093;37.716;-122.060;2023-04-09T02:08:25;100261.45;;;18.36;35.15
51053;BME280;37093;37.716;-122.060;2023-04-09T02:10:57;100259.68;;;18.51;34.72
51053;BME280;37093;37.716;-122.060;2023-04-09T02:13:28;100261.68;;;18.87;34.45
51053;BME280;37093;37.716;-122.060;2023-04-09T02:15:58;100264.03;;;18.82;35.00
51053;BME280;37093;37.716;-122.060;2023-04-09T02:18:28;100264.58;;;19.26;33.83
51053;BME280;37093;37.716;-122.060;2023-04-09T02:20:57;100266.24;;;19.13;34.17
51053;BME280;37093;37.716;-122.060;2023-04-09T02:23:26;100268.02;;;19.17;33.75
51053;BME280;37093;37.716;-122.060;2023-04-09T02:25:55;100270.49;;;19.03;33.74
51053;BME280;37093;37.716;-122.060;2023-04-09T02:28:24;100272.00;;;18.92;34.23
51053;BME280;37093;37.716;-122.060;2023-04-09T02:30:53;100274.21;;;18.92;34.67
51053;BME280;37093;37.716;-122.060;2023-04-09T02:33:21;100275.94;;;18.77;34.53
51053;BME280;37093;37.716;-122.060;2023-04-09T02:35:49;100273.99;;;19.23;34.58
51053;BME280;37093;37.716;-122.060;2023-04-09T02:38:18;100276.59;;;18.77;33.53
51053;BME280;37093;37.716;-122.060;2023-04-09T02:40:46;100271.16;;;19.40;33.50
51053;BME280;37093;37.716;-122.060;2023-04-09T02:43:15;100275.91;;;19.75;32.60
51053;BME280;37093;37.716;-122.060;2023-04-09T02:45:43;100269.80;;;19.97;32.38
51053;BME280;37093;37.716;-122.060;2023-04-09T02:48:12;100271.70;;;19.75;33.00
51053;BME280;37093;37.716;-122.060;2023-04-09T02:50:40;100275.19;;;19.74;33.12
51053;BME280;37093;37.716;-122.060;2023-04-09T02:53:08;100276.36;;;19.90;33.43
51053;BME280;37093;37.716;-122.060;2023-04-09T02:55:37;100271.75;;;19.94;32.90
51053;BME280;37093;37.716;-122.060;2023-04-09T02:58:05;100270.54;;;19.82;32.97
51053;BME280;37093;37.716;-122.060;2023-04-09T03:00:34;100269.87;;;19.83;33.02
51053;BME280;37093;37.716;-122.060;2023-04-09T03:03:02;100272.49;;;19.94;33.29
51053;BME280;37093;37.716;-122.060;2023-04-09T03:05:31;100275.28;;;19.96;33.16
51053;BME280;37093;37.716;-122.060;2023-04-09T03:08:00;100274.64;;;19.88;32.77
51053;BME280;37093;37.716;-122.060;2023-04-09T03:10:28;100275.53;;;19.90;32.88
51053;BME280;37093;37.716;-122.060;2023-04-09T03:12:56;100279.10;;;20.13;33.14
51053;BME280;37093;37.716;-122.060;2023-04-09T03:15:24;100284.57;;;19.89;33.31
51053;BME280;37093;37.716;-122.060;2023-04-09T03:17:53;100287.32;;;20.01;33.27
51053;BME280;37093;37.716;-122.060;2023-04-09T03:20:22;100286.13;;;19.90;33.30
51053;BME280;37093;37.716;-122.060;2023-04-09T03:22:49;100291.62;;;19.80;33.18
51053;BME280;37093;37.716;-122.060;2023-04-09T03:25:18;100298.79;;;19.80;33.39
51053;BME280;37093;37.716;-122.060;2023-04-09T03:27:47;100304.76;;;19.58;33.37
51053;BME280;37093;37.716;-122.060;2023-04-09T03:30:15;100308.95;;;19.78;33.20
51053;BME280;37093;37.716;-122.060;2023-04-09T03:32:44;100310.94;;;19.91;33.52
51053;BME280;37093;37.716;-122.060;2023-04-09T03:35:12;100318.58;;;19.36;33.65
51053;BME280;37093;37.716;-122.060;2023-04-09T03:37:41;100318.59;;;20.03;33.75
51053;BME280;37093;37.716;-122.060;2023-04-09T03:40:10;100323.74;;;19.16;33.67
51053;BME280;37093;37.716;-122.060;2023-04-09T03:42:42;100327.48;;;19.54;34.10
51053;BME280;37093;37.716;-122.060;2023-04-09T03:45:11;100334.52;;;19.06;33.73
51053;BME280;37093;37.716;-122.060;2023-04-09T03:47:39;100337.20;;;19.46;33.85
51053;BME280;37093;37.716;-122.060;2023-04-09T03:50:08;100341.87;;;19.41;34.08
51053;BME280;37093;37.716;-122.060;2023-04-09T03:52:37;100344.68;;;19.38;33.69
51053;BME280;37093;37.716;-122.060;2023-04-09T03:55:07;100345.26;;;19.22;34.14
51053;BME280;37093;37.716;-122.060;2023-04-09T03:57:35;100346.86;;;19.08;34.05
51053;BME280;37093;37.716;-122.060;2023-04-09T04:00:04;100350.60;;;18.94;34.44
51053;BME280;37093;37.716;-122.060;2023-04-09T04:02:33;100351.82;;;18.89;34.67
51053;BME280;37093;37.716;-122.060;2023-04-09T04:05:01;100358.95;;;18.98;34.97
51053;BME280;37093;37.716;-122.060;2023-04-09T04:07:31;100363.85;;;19.02;35.06
51053;BME280;37093;37.716;-122.060;2023-04-09T04:09:59;100366.72;;;18.96;35.11
51053;BME280;37093;37.716;-122.060;2023-04-09T04:12:27;100367.58;;;18.88;35.23
51053;BME280;37093;37.716;-122.060;2023-04-09T04:14:58;100374.50;;;19.04;35.54
51053;BME280;37093;37.716;-122.060;2023-04-09T04:17:26;100379.01;;;18.81;35.24
51053;BME280;37093;37.716;-122.060;2023-04-09T04:19:55;100383.07;;;18.46;35.46
51053;BME280;37093;37.716;-122.060;2023-04-09T04:22:23;100383.90;;;18.43;35.54
51053;BME280;37093;37.716;-122.060;2023-04-09T04:24:52;100384.74;;;18.65;35.52
51053;BME280;37093;37.716;-122.060;2023-04-09T04:27:21;100392.06;;;18.84;35.31
51053;BME280;37093;37.716;-122.060;2023-04-09T04:29:49;100401.21;;;18.34;35.60
51053;BME280;37093;37.716;-122.060;2023-04-09T04:32:18;100407.59;;;18.50;35.32
51053;BME280;37093;37.716;-122.060;2023-04-09T04:34:48;100412.96;;;18.52;36.08
51053;BME280;37093;37.716;-122.060;2023-04-09T04:37:16;100416.57;;;18.34;36.33
51053;BME280;37093;37.716;-122.060;2023-04-09T04:39:45;100420.88;;;18.21;35.87
51053;BME280;37093;37.716;-122.060;2023-04-09T04:42:13;100422.79;;;18.40;35.49
51053;BME280;37093;37.716;-122.060;2023-04-09T04:44:43;100426.67;;;18.14;35.66
51053;BME280;37093;37.716;-122.060;2023-04-09T04:47:11;100433.76;;;18.61;35.67
51053;BME280;37093;37.716;-122.060;2023-04-09T04:49:40;100435.24;;;18.07;35.89
51053;BME280;37093;37.716;-122.060;2023-04-09T04:52:08;100437.33;;;18.30;35.89
51053;BME280;37093;37.716;-122.060;2023-04-09T04:54:37;100440.76;;;18.26;36.17
51053;BME280;37093;37.716;-122.060;2023-04-09T04:57:05;100443.82;;;18.02;36.32
51053;BME280;37093;37.716;-122.060;2023-04-09T04:59:37;100449.54;;;17.84;36.83
51053;BME280;37093;37.716;-122.060;2023-04-09T05:02:05;100449.73;;;17.93;37.21
51053;BME280;37093;37.716;-122.060;2023-04-09T05:04:34;100447.55;;;17.88;37.08
51053;BME280;37093;37.716;-122.060;2023-04-09T05:07:02;100451.04;;;17.51;37.25
51053;BME280;37093;37.716;-122.060;2023-04-09T05:09:31;100458.48;;;17.88;37.50
51053;BME280;37093;37.716;-122.060;2023-04-09T05:11:59;100463.32;;;17.30;37.79
51053;BME280;37093;37.716;-122.060;2023-04-09T05:14:28;100467.16;;;17.52;37.49
51053;BME280;37093;37.716;-122.060;2023-04-09T05:16:56;100470.36;;;17.47;37.81
51053;BME280;37093;37.716;-122.060;2023-04-09T05:19:25;100473.11;;;17.18;37.79
51053;BME280;37093;37.716;-122.060;2023-04-09T05:21:54;100473.33;;;17.50;37.53
51053;BME280;37093;37.716;-122.060;2023-04-09T05:24:22;100469.82;;;17.69;37.44
51053;BME280;37093;37.716;-122.060;2023-04-09T05:26:51;100472.45;;;17.22;37.28
51053;BME280;37093;37.716;-122.060;2023-04-09T05:29:19;100468.31;;;17.66;37.51
51053;BME280;37093;37.716;-122.060;2023-04-09T05:31:48;100464.63;;;17.03;37.67
51053;BME280;37093;37.716;-122.060;2023-04-09T05:34:16;100469.60;;;17.29;37.61
51053;BME280;37093;37.716;-122.060;2023-04-09T05:36:45;100474.10;;;17.29;37.50
51053;BME280;37093;37.716;-122.060;2023-04-09T05:39:14;100473.42;;;17.36;37.83
51053;BME280;37093;37.716;-122.060;2023-04-09T05:41:42;100472.93;;;17.17;38.59
51053;BME280;37093;37.716;-122.060;2023-04-09T05:44:11;100472.54;;;16.71;39.17
51053;BME280;37093;37.716;-122.060;2023-04-09T05:46:40;100464.29;;;16.36;39.72
51053;BME280;37093;37.716;-122.060;2023-04-09T05:49:08;100463.62;;;16.43;39.38
51053;BME280;37093;37.716;-122.060;2023-04-09T05:51:36;100468.42;;;16.82;38.88
51053;BME280;37093;37.716;-122.060;2023-04-09T05:54:05;100467.10;;;16.43;39.31
51053;BME280;37093;37.716;-122.060;2023-04-09T05:56:34;100465.66;;;16.33;39.51
51053;BME280;37093;37.716;-122.060;2023-04-09T05:59:02;100465.47;;;16.45;38.91
51053;BME280;37093;37.716;-122.060;2023-04-09T06:01:31;100465.51;;;16.33;38.94
51053;BME280;37093;37.716;-122.060;2023-04-09T06:03:59;100460.69;;;16.34;39.09
51053;BME280;37093;37.716;-122.060;2023-04-09T06:06:28;100461.78;;;16.63;39.14
51053;BME280;37093;37.716;-122.060;2023-04-09T06:08:56;100463.67;;;16.70;38.53
51053;BME280;37093;37.716;-122.060;2023-04-09T06:11:25;100464.41;;;16.57;38.15
51053;BME280;37093;37.716;-122.060;2023-04-09T06:13:53;100467.83;;;16.59;38.10
51053;BME280;37093;37.716;-122.060;2023-04-09T06:16:22;100467.80;;;16.51;38.37
51053;BME280;37093;37.716;-122.060;2023-04-09T06:18:50;100465.48;;;16.70;38.38
51053;BME280;37093;37.716;-122.060;2023-04-09T06:21:20;100469.14;;;16.57;38.76
51053;BME280;37093;37.716;-122.060;2023-04-09T06:23:48;100470.64;;;16.41;38.72
51053;BME280;37093;37.716;-122.060;2023-04-09T06:26:16;100472.75;;;16.28;38.90
51053;BME280;37093;37.716;-122.060;2023-04-09T06:28:45;100474.49;;;16.57;38.74
51053;BME280;37093;37.716;-122.060;2023-04-09T06:31:13;100479.07;;;16.27;38.73
51053;BME280;37093;37.716;-122.060;2023-04-09T06:33:42;100481.22;;;16.27;38.81
51053;BME280;37093;37.716;-122.060;2023-04-09T06:36:10;100481.64;;;16.28;38.86
51053;BME280;37093;37.716;-122.060;2023-04-09T06:38:39;100475.31;;;16.38;38.99
51053;BME280;37093;37.716;-122.060;2023-04-09T06:41:08;100474.46;;;16.11;38.51
51053;BME280;37093;37.716;-122.060;2023-04-09T06:43:36;100480.93;;;16.08;38.81
51053;BME280;37093;37.716;-122.060;2023-04-09T06:46:05;100479.01;;;16.13;38.57
51053;BME280;37093;37.716;-122.060;2023-04-09T06:48:34;100476.33;;;16.27;38.84
51053;BME280;37093;37.716;-122.060;2023-04-09T06:51:02;100475.21;;;16.33;38.49
51053;BME280;37093;37.716;-122.060;2023-04-09T06:53:31;100474.45;;;16.13;38.99
51053;BME280;37093;37.716;-122.060;2023-04-09T06:55:59;100479.67;;;15.58;39.41
51053;BME280;37093;37.716;-122.060;2023-04-09T06:58:27;100482.44;;;15.95;39.13
51053;BME280;37093;37.716;-122.060;2023-04-09T07:01:12;100482.79;;;15.35;38.53
51053;BME280;37093;37.716;-122.060;2023-04-09T07:03:41;100481.49;;;14.97;37.33
51053;BME280;37093;37.716;-122.060;2023-04-09T07:06:09;100486.39;;;16.43;36.09
51053;BME280;37093;37.716;-122.060;2023-04-09T07:08:38;100488.39;;;16.94;36.08
51053;BME280;37093;37.716;-122.060;2023-04-09T07:11:07;100490.43;;;16.94;37.04
51053;BME280;37093;37.716;-122.060;2023-04-09T07:13:35;100485.95;;;16.46;37.40
51053;BME280;37093;37.716;-122.060;2023-04-09T07:16:04;100485.85;;;16.55;37.67
51053;BME280;37093;37.716;-122.060;2023-04-09T07:18:32;100486.86;;;15.92;38.08
51053;BME280;37093;37.716;-122.060;2023-04-09T07:21:01;100481.31;;;15.61;38.03
51053;BME280;37093;37.716;-122.060;2023-04-09T07:23:30;100481.42;;;16.06;38.01
51053;BME280;37093;37.716;-122.060;2023-04-09T07:26:02;100480.67;;;15.66;38.40
51053;BME280;37093;37.716;-122.060;2023-04-09T07:28:30;100481.08;;;15.64;38.65
51053;BME280;37093;37.716;-122.060;2023-04-09T07:31:00;100483.35;;;15.69;38.56
51053;BME280;37093;37.716;-122.060;2023-04-09T07:33:29;100483.34;;;15.64;38.90
51053;BME280;37093;37.716;-122.060;2023-04-09T07:35:57;100488.73;;;15.53;38.92
51053;BME280;37093;37.716;-122.060;2023-04-09T07:38:28;100490.24;;;15.32;39.27
51053;BME280;37093;37.716;-122.060;2023-04-09T07:40:56;100493.42;;;15.14;39.53
51053;BME280;37093;37.716;-122.060;2023-04-09T07:43:25;100499.77;;;15.56;39.15
51053;BME280;37093;37.716;-122.060;2023-04-09T07:45:54;100500.02;;;15.57;39.01
51053;BME280;37093;37.716;-122.060;2023-04-09T07:48:22;100498.27;;;15.62;38.87
51053;BME280;37093;37.716;-122.060;2023-04-09T07:50:51;100498.36;;;15.39;38.61
51053;BME280;37093;37.716;-122.060;2023-04-09T07:53:19;100502.55;;;15.69;38.62
51053;BME280;37093;37.716;-122.060;2023-04-09T07:55:50;100501.35;;;15.57;38.82
51053;BME280;37093;37.716;-122.060;2023-04-09T07:58:18;100503.58;;;15.45;38.99
51053;BME280;37093;37.716;-122.060;2023-04-09T08:00:47;100501.97;;;15.19;38.66
51053;BME280;37093;37.716;-122.060;2023-04-09T08:03:16;100499.50;;;15.27;39.35
51053;BME280;37093;37.716;-122.060;2023-04-09T08:05:45;100501.07;;;15.26;39.71
51053;BME280;37093;37.716;-122.060;2023-04-09T08:08:13;100502.84;;;15.20;39.11
51053;BME280;37093;37.716;-122.060;2023-04-09T08:10:42;100503.67;;;15.35;39.84
51053;BME280;37093;37.716;-122.060;2023-04-09T08:13:10;100507.19;;;14.85;39.95
51053;BME280;37093;37.716;-122.060;2023-04-09T08:15:39;100511.47;;;14.69;40.06
51053;BME280;37093;37.716;-122.060;2023-04-09T08:18:07;100509.88;;;15.03;39.70
51053;BME280;37093;37.716;-122.060;2023-04-09T08:20:36;100507.41;;;14.74;39.99
51053;BME280;37093;37.716;-122.060;2023-04-09T08:23:05;100506.03;;;15.13;39.93
51053;BME280;37093;37.716;-122.060;2023-04-09T08:25:33;100505.78;;;15.03;40.11
51053;BME280;37093;37.716;-122.060;2023-04-09T08:28:02;100502.29;;;14.52;40.24
51053;BME280;37093;37.716;-122.060;2023-04-09T08:30:31;100504.13;;;14.46;40.16
51053;BME280;37093;37.716;-122.060;2023-04-09T08:32:59;100507.12;;;14.88;40.10
51053;BME280;37093;37.716;-122.060;2023-04-09T08:35:29;100502.82;;;14.88;40.06
51053;BME280;37093;37.716;-122.060;2023-04-09T08:37:58;100501.84;;;15.04;39.56
51053;BME280;37093;37.716;-122.060;2023-04-09T08:40:27;100504.59;;;15.01;39.56
51053;BME280;37093;37.716;-122.060;2023-04-09T08:42:55;100504.19;;;14.97;39.51
51053;BME280;37093;37.716;-122.060;2023-04-09T08:45:24;100503.65;;;14.45;39.51
51053;BME280;37093;37.716;-122.060;2023-04-09T08:47:53;100505.10;;;15.01;39.64
51053;BME280;37093;37.716;-122.060;2023-04-09T08:50:22;100505.44;;;14.41;39.89
51053;BME280;37093;37.716;-122.060;2023-04-09T08:52:51;100505.77;;;15.01;39.66
51053;BME280;37093;37.716;-122.060;2023-04-09T08:55:20;100504.41;;;14.72;39.19
51053;BME280;37093;37.716;-122.060;2023-04-09T08:57:49;100504.31;;;14.70;39.30
51053;BME280;37093;37.716;-122.060;2023-04-09T09:00:18;100502.59;;;14.47;39.60
51053;BME280;37093;37.716;-122.060;2023-04-09T09:03:03;100498.01;;;14.98;39.55
51053;BME280;37093;37.716;-122.060;2023-04-09T09:05:36;100501.08;;;14.47;39.52
51053;BME280;37093;37.716;-122.060;2023-04-09T09:08:06;100503.72;;;14.96;39.56
51053;BME280;37093;37.716;-122.060;2023-04-09T09:10:39;100503.41;;;14.36;40.22
51053;BME280;37093;37.716;-122.060;2023-04-09T09:13:25;100501.49;;;14.82;39.96
51053;BME280;37093;37.716;-122.060;2023-04-09T09:16:10;100496.27;;;14.77;39.79
51053;BME280;37093;37.716;-122.060;2023-04-09T09:18:41;100496.80;;;14.70;39.68
51053;BME280;37093;37.716;-122.060;2023-04-09T09:21:11;100494.26;;;14.72;39.97
51053;BME280;37093;37.716;-122.060;2023-04-09T09:23:40;100491.80;;;14.46;40.41
51053;BME280;37093;37.716;-122.060;2023-04-09T09:26:12;100490.37;;;14.31;40.36
51053;BME280;37093;37.716;-122.060;2023-04-09T09:28:41;100488.66;;;14.50;40.35
51053;BME280;37093;37.716;-122.060;2023-04-09T09:31:11;100485.72;;;14.38;40.81
51053;BME280;37093;37.716;-122.060;2023-04-09T09:33:39;100481.28;;;14.26;41.04
51053;BME280;37093;37.716;-122.060;2023-04-09T09:36:08;100481.66;;;14.20;40.69
51053;BME280;37093;37.716;-122.060;2023-04-09T09:38:51;100485.32;;;14.29;41.35
51053;BME280;37093;37.716;-122.060;2023-04-09T09:41:20;100481.96;;;14.08;41.53
51053;BME280;37093;37.716;-122.060;2023-04-09T09:43:49;100483.20;;;13.97;41.24
51053;BME280;37093;37.716;-122.060;2023-04-09T09:46:17;100478.22;;;13.84;41.53
51053;BME280;37093;37.716;-122.060;2023-04-09T09:48:48;100475.11;;;13.66;41.96
51053;BME280;37093;37.716;-122.060;2023-04-09T09:51:16;100479.61;;;13.32;42.60
51053;BME280;37093;37.716;-122.060;2023-04-09T09:53:47;100472.63;;;13.25;42.62
51053;BME280;37093;37.716;-122.060;2023-04-09T09:56:22;100467.68;;;12.88;43.59
51053;BME280;37093;37.716;-122.060;2023-04-09T09:58:53;100467.14;;;12.84;43.94
51053;BME280;37093;37.716;-122.060;2023-04-09T10:01:24;100468.10;;;12.63;44.76
51053;BME280;37093;37.716;-122.060;2023-04-09T10:03:55;100466.53;;;12.84;44.09
51053;BME280;37093;37.716;-122.060;2023-04-09T10:06:24;100464.63;;;13.17;42.73
51053;BME280;37093;37.716;-122.060;2023-04-09T10:08:56;100468.69;;;13.15;42.39
51053;BME280;37093;37.716;-122.060;2023-04-09T10:11:25;100461.78;;;13.71;42.41
51053;BME280;37093;37.716;-122.060;2023-04-09T10:13:56;100459.26;;;13.49;42.16
51053;BME280;37093;37.716;-122.060;2023-04-09T10:16:25;100459.06;;;13.72;42.08
51053;BME280;37093;37.716;-122.060;2023-04-09T10:18:54;100464.72;;;13.41;42.33
51053;BME280;37093;37.716;-122.060;2023-04-09T10:21:30;100459.97;;;13.70;42.22
51053;BME280;37093;37.716;-122.060;2023-04-09T10:24:00;100457.49;;;13.64;41.97
51053;BME280;37093;37.716;-122.060;2023-04-09T10:26:28;100461.56;;;12.94;43.32
51053;BME280;37093;37.716;-122.060;2023-04-09T10:29:05;100457.21;;;12.98;43.41
51053;BME280;37093;37.716;-122.060;2023-04-09T10:31:53;100453.17;;;12.57;44.44
51053;BME280;37093;37.716;-122.060;2023-04-09T10:34:22;100450.48;;;11.91;45.77
51053;BME280;37093;37.716;-122.060;2023-04-09T10:36:52;100456.17;;;12.16;45.67
51053;BME280;37093;37.716;-122.060;2023-04-09T10:39:25;100453.33;;;12.92;44.47
51053;BME280;37093;37.716;-122.060;2023-04-09T10:41:54;100452.52;;;12.76;43.92
51053;BME280;37093;37.716;-122.060;2023-04-09T10:44:24;100453.87;;;12.88;43.48
51053;BME280;37093;37.716;-122.060;2023-04-09T10:46:53;100458.17;;;13.03;43.07
51053;BME280;37093;37.716;-122.060;2023-04-09T10:49:23;100459.86;;;13.23;42.91
51053;BME280;37093;37.716;-122.060;2023-04-09T10:51:53;100457.67;;;13.19;42.45
51053;BME280;37093;37.716;-122.060;2023-04-09T10:54:43;100457.70;;;13.26;43.06
51053;BME280;37093;37.716;-122.060;2023-04-09T10:57:18;100457.17;;;13.44;42.29
51053;BME280;37093;37.716;-122.060;2023-04-09T10:59:49;100457.27;;;13.09;43.20
51053;BME280;37093;37.716;-122.060;2023-04-09T11:03:16;100457.43;;;13.28;42.75
51053;BME280;37093;37.716;-122.060;2023-04-09T11:05:47;100457.99;;;13.15;42.85
51053;BME280;37093;37.716;-122.060;2023-04-09T11:08:18;100451.00;;;13.34;42.32
51053;BME280;37093;37.716;-122.060;2023-04-09T11:10:47;100451.37;;;12.83;43.29
51053;BME280;37093;37.716;-122.060;2023-04-09T11:13:17;100448.38;;;13.21;42.90
51053;BME280;37093;37.716;-122.060;2023-04-09T11:15:46;100452.41;;;13.54;42.83
51053;BME280;37093;37.716;-122.060;2023-04-09T11:18:15;100448.04;;;13.07;42.73
51053;BME280;37093;37.716;-122.060;2023-04-09T11:20:47;100446.72;;;13.23;42.36
51053;BME280;37093;37.716;-122.060;2023-04-09T11:23:16;100451.91;;;13.18;42.66
51053;BME280;37093;37.716;-122.060;2023-04-09T11:25:48;100452.88;;;13.28;42.72
51053;BME280;37093;37.716;-122.060;2023-04-09T11:28:18;100452.18;;;13.02;42.13
51053;BME280;37093;37.716;-122.060;2023-04-09T11:30:49;100453.04;;;12.80;43.17
51053;BME280;37093;37.716;-122.060;2023-04-09T11:33:17;100449.00;;;12.40;43.74
51053;BME280;37093;37.716;-122.060;2023-04-09T11:35:46;100451.79;;;12.40;43.68
51053;BME280;37093;37.716;-122.060;2023-04-09T11:38:14;100449.65;;;12.83;43.67
51053;BME280;37093;37.716;-122.060;2023-04-09T11:40:43;100447.36;;;12.76;43.14
51053;BME280;37093;37.716;-122.060;2023-04-09T11:43:12;100444.71;;;12.19;43.59
51053;BME280;37093;37.716;-122.060;2023-04-09T11:45:40;100447.52;;;11.66;44.61
51053;BME280;37093;37.716;-122.060;2023-04-09T11:48:09;100446.82;;;12.16;44.14
51053;BME280;37093;37.716;-122.060;2023-04-09T11:50:38;100453.80;;;11.91;44.74
51053;BME280;37093;37.716;-122.060;2023-04-09T11:53:18;100453.54;;;12.17;43.73
51053;BME280;37093;37.716;-122.060;2023-04-09T11:55:48;100445.36;;;11.52;45.86
51053;BME280;37093;37.716;-122.060;2023-04-09T11:58:21;100450.38;;;12.13;44.44
51053;BME280;37093;37.716;-122.060;2023-04-09T12:00:52;100450.08;;;12.08;44.75
51053;BME280;37093;37.716;-122.060;2023-04-09T12:03:27;100451.31;;;11.87;45.10
51053;BME280;37093;37.716;-122.060;2023-04-09T12:05:56;100450.03;;;11.92;45.05
51053;BME280;37093;37.716;-122.060;2023-04-09T12:08:27;100447.92;;;12.09;44.39
51053;BME280;37093;37.716;-122.060;2023-04-09T12:10:55;100448.72;;;12.18;44.09
51053;BME280;37093;37.716;-122.060;2023-04-09T12:13:32;100447.37;;;12.32;43.73
51053;BME280;37093;37.716;-122.060;2023-04-09T12:16:00;100448.22;;;12.71;43.29
51053;BME280;37093;37.716;-122.060;2023-04-09T12:18:29;100447.56;;;12.75;43.11
51053;BME280;37093;37.716;-122.060;2023-04-09T12:20:57;100446.45;;;12.72;43.09
51053;BME280;37093;37.716;-122.060;2023-04-09T12:23:26;100445.69;;;12.81;43.04
51053;BME280;37093;37.716;-122.060;2023-04-09T12:25:55;100450.13;;;12.67;43.42
51053;BME280;37093;37.716;-122.060;2023-04-09T12:28:23;100451.79;;;12.42;43.97
51053;BME280;37093;37.716;-122.060;2023-04-09T12:30:52;100451.02;;;12.69;43.43
51053;BME280;37093;37.716;-122.060;2023-04-09T12:33:20;100454.79;;;12.66;43.49
51053;BME280;37093;37.716;-122.060;2023-04-09T12:35:49;100458.09;;;13.12;43.08